createdAt,value
2023-02-15T00:09:17.078Z,18.02
2023-02-15T00:11:50.774Z,18.90
2023-02-15T00:14:22.680Z,18.63
2023-02-15T00:16:50.346Z,18.57
2023-02-15T00:19:18.316Z,17.23
2023-02-15T00:21:45.444Z,18.63
2023-02-15T00:24:13.204Z,18.77
2023-02-15T00:26:40.850Z,17.30
2023-02-15T00:29:08.096Z,17.70
2023-02-15T00:31:35.168Z,18.87
2023-02-15T00:34:11.919Z,18.37
2023-02-15T00:36:38.995Z,17.57
2023-02-15T00:39:05.812Z,18.43
2023-02-15T00:41:33.440Z,17.83
2023-02-15T00:44:00.282Z,18.10
2023-02-15T00:46:27.112Z,18.43
2023-02-15T00:48:53.942Z,17.77
2023-02-15T00:51:21.467Z,17.13
2023-02-15T00:53:48.417Z,18.00
2023-02-15T00:56:15.311Z,18.93
2023-02-15T00:58:42.321Z,19.00
2023-02-15T01:01:13.714Z,18.67
2023-02-15T01:03:42.554Z,19.07
2023-02-15T01:06:09.506Z,18.57
2023-02-15T01:08:36.311Z,17.73
2023-02-15T01:11:23.002Z,17.03
2023-02-15T01:13:54.558Z,16.60
2023-02-15T01:16:21.841Z,16.37
2023-02-15T01:18:48.751Z,16.60
2023-02-15T01:21:20.263Z,17.80
2023-02-15T01:23:47.025Z,16.73
2023-02-15T01:26:14.085Z,15.57
2023-02-15T01:28:43.304Z,16.50
2023-02-15T01:31:11.908Z,15.37
2023-02-15T01:33:38.882Z,17.10
2023-02-15T01:36:05.930Z,15.57
2023-02-15T01:38:32.961Z,16.93
2023-02-15T01:41:18.497Z,15.83
2023-02-15T01:43:47.501Z,17.10
2023-02-15T01:46:15.139Z,16.37
2023-02-15T01:48:48.127Z,17.63
2023-02-15T01:51:16.758Z,16.93
2023-02-15T01:56:30.598Z,17.38
2023-02-15T01:58:58.979Z,17.33
2023-02-15T02:01:26.645Z,16.00
2023-02-15T02:03:56.498Z,16.07
2023-02-15T02:06:25.356Z,16.20
2023-02-15T02:08:53.799Z,17.37
2023-02-15T02:11:21.045Z,16.27
2023-02-15T02:13:47.873Z,15.13
2023-02-15T02:16:23.966Z,16.83
2023-02-15T02:19:10.250Z,17.63
2023-02-15T02:22:04.120Z,15.43
2023-02-15T02:24:47.623Z,16.40
2023-02-15T02:27:19.924Z,16.60
2023-02-15T02:30:01.740Z,14.80
2023-02-15T02:33:00.646Z,16.00
2023-02-15T02:35:34.842Z,16.03
2023-02-15T02:38:28.097Z,16.10
2023-02-15T02:41:18.170Z,16.37
2023-02-15T02:43:48.520Z,16.50
2023-02-15T02:46:23.338Z,17.77
2023-02-15T02:48:50.263Z,16.10
2023-02-15T02:51:22.334Z,15.57
2023-02-15T02:53:51.365Z,15.37
2023-02-15T02:56:40.271Z,14.87
2023-02-15T02:59:14.053Z,16.20
2023-02-15T03:01:53.114Z,15.73
2023-02-15T03:04:32.057Z,15.43
2023-02-15T03:06:59.523Z,14.70
2023-02-15T03:09:42.944Z,15.20
2023-02-15T03:12:26.917Z,16.17
2023-02-15T03:15:21.455Z,14.70
2023-02-15T03:17:55.653Z,16.50
2023-02-15T03:20:30.278Z,15.77
2023-02-15T03:23:05.599Z,14.83
2023-02-15T03:25:35.024Z,16.27
2023-02-15T03:28:13.492Z,15.80
2023-02-15T03:30:41.501Z,15.97
2023-02-15T03:33:08.443Z,15.30
2023-02-15T03:35:40.657Z,15.67
2023-02-15T03:38:08.317Z,15.50
2023-02-15T03:41:04.165Z,15.13
2023-02-15T03:43:46.034Z,15.00
2023-02-15T03:46:28.721Z,15.63
2023-02-15T03:49:05.122Z,13.17
2023-02-15T03:51:40.137Z,16.67
2023-02-15T03:54:49.252Z,15.57
2023-02-15T03:57:42.228Z,14.77
2023-02-15T04:00:42.249Z,15.23
2023-02-15T04:03:18.187Z,15.53
2023-02-15T04:05:45.578Z,16.27
2023-02-15T04:08:12.723Z,15.33
2023-02-15T04:10:56.330Z,16.67
2023-02-15T04:13:24.110Z,15.97
2023-02-15T04:16:07.558Z,15.03
2023-02-15T04:19:00.735Z,17.13
2023-02-15T04:21:47.645Z,15.83
2023-02-15T04:24:33.149Z,14.80
2023-02-15T04:27:00.276Z,16.47
2023-02-15T04:29:27.671Z,14.87
2023-02-15T04:31:55.313Z,14.60
2023-02-15T04:34:22.227Z,14.93
2023-02-15T04:36:49.080Z,15.80
2023-02-15T04:39:16.227Z,14.40
2023-02-15T04:41:43.037Z,15.43
2023-02-15T04:44:10.052Z,15.33
2023-02-15T04:46:36.906Z,15.97
2023-02-15T04:49:03.887Z,17.10
2023-02-15T04:51:30.647Z,16.90
2023-02-15T04:53:57.793Z,17.50
2023-02-15T04:56:24.608Z,14.23
2023-02-15T04:58:51.405Z,17.13
2023-02-15T05:01:18.360Z,15.10
2023-02-15T05:03:45.359Z,14.87
2023-02-15T05:06:12.232Z,15.93
2023-02-15T05:08:39.149Z,14.93
2023-02-15T05:11:06.017Z,15.97
2023-02-15T05:13:32.887Z,16.93
2023-02-15T05:15:59.810Z,16.93
2023-02-15T05:18:26.751Z,16.50
2023-02-15T05:20:53.559Z,17.33
2023-02-15T05:23:20.395Z,16.60
2023-02-15T05:26:09.137Z,17.50
2023-02-15T05:28:36.466Z,18.80
2023-02-15T05:31:04.956Z,29.73
2023-02-15T05:33:32.407Z,24.57
2023-02-15T05:35:59.466Z,23.13
2023-02-15T05:38:26.692Z,22.13
2023-02-15T05:40:53.602Z,19.47
2023-02-15T05:43:20.453Z,18.03
2023-02-15T05:45:51.198Z,19.60
2023-02-15T05:48:18.353Z,55.38
2023-02-15T05:50:45.268Z,33.23
2023-02-15T05:53:12.083Z,65.87
2023-02-15T05:55:40.070Z,72.90
2023-02-15T05:58:07.673Z,22.23
2023-02-15T06:00:37.299Z,21.33
2023-02-15T06:03:04.935Z,19.02
2023-02-15T06:05:31.825Z,20.60
2023-02-15T06:07:58.613Z,18.40
2023-02-15T06:10:25.510Z,18.67
2023-02-15T06:12:52.301Z,18.27
2023-02-15T06:15:19.197Z,19.53
2023-02-15T06:17:46.287Z,20.00
2023-02-15T06:20:13.595Z,21.30
2023-02-15T06:22:40.409Z,22.33
2023-02-15T06:25:10.879Z,20.97
2023-02-15T06:27:38.225Z,20.55
2023-02-15T06:30:06.884Z,19.23
2023-02-15T06:32:33.770Z,20.53
2023-02-15T06:35:00.578Z,20.97
2023-02-15T06:37:27.382Z,20.13
2023-02-15T06:39:54.147Z,22.17
2023-02-15T06:42:21.040Z,21.73
2023-02-15T06:44:47.911Z,20.67
2023-02-15T06:47:14.768Z,21.10
2023-02-15T06:49:41.552Z,18.88
2023-02-15T06:52:08.334Z,16.42
2023-02-15T06:54:35.126Z,18.33
2023-02-15T06:57:01.985Z,16.50
2023-02-15T06:59:28.819Z,16.08
2023-02-15T07:01:55.621Z,17.85
2023-02-15T07:04:22.500Z,16.67
2023-02-15T07:06:49.293Z,16.48
2023-02-15T07:09:16.120Z,16.98
2023-02-15T07:12:01.167Z,18.85
2023-02-15T07:14:29.052Z,16.50
2023-02-15T07:16:55.983Z,18.90
2023-02-15T07:19:22.836Z,17.52
2023-02-15T07:21:49.683Z,17.35
2023-02-15T07:24:16.526Z,17.27
2023-02-15T07:26:43.306Z,18.73
2023-02-15T07:29:10.150Z,16.60
2023-02-15T07:31:37.010Z,17.52
2023-02-15T07:34:03.784Z,16.25
2023-02-15T07:36:30.615Z,20.92
2023-02-15T07:38:57.475Z,17.05
2023-02-15T07:41:24.580Z,18.40
2023-02-15T07:43:51.419Z,24.23
2023-02-15T07:46:18.945Z,19.40
2023-02-15T07:48:46.099Z,15.40
2023-02-15T07:51:13.530Z,23.45
2023-02-15T07:53:40.636Z,25.92
2023-02-15T07:56:12.242Z,31.60
2023-02-15T07:58:51.745Z,20.50
2023-02-15T08:01:28.093Z,19.83
2023-02-15T08:03:55.577Z,22.08
2023-02-15T08:06:23.982Z,18.90
2023-02-15T08:08:50.914Z,20.83
2023-02-15T08:11:33.731Z,78.97
2023-02-15T08:14:25.910Z,18.15
2023-02-15T08:16:54.016Z,26.75
2023-02-15T08:19:27.820Z,22.67
2023-02-15T08:22:07.420Z,20.05
2023-02-15T08:24:35.835Z,17.10
2023-02-15T08:27:06.424Z,18.30
2023-02-15T08:29:33.725Z,16.98
2023-02-15T08:32:05.689Z,19.00
2023-02-15T08:34:34.883Z,20.10
2023-02-15T08:37:01.959Z,19.33
2023-02-15T08:39:29.640Z,24.88
2023-02-15T08:41:56.723Z,16.25
2023-02-15T08:44:23.528Z,14.15
2023-02-15T08:46:50.487Z,14.88
2023-02-15T08:49:19.241Z,14.80
2023-02-15T08:51:46.129Z,13.48
2023-02-15T08:54:20.734Z,12.15
2023-02-15T08:56:47.816Z,11.98
2023-02-15T08:59:19.463Z,10.52
2023-02-15T09:01:46.748Z,11.43
2023-02-15T09:04:14.113Z,10.75
2023-02-15T09:06:41.440Z,10.50
2023-02-15T09:09:08.618Z,11.10
2023-02-15T09:11:37.681Z,11.75
2023-02-15T09:14:10.110Z,10.63
2023-02-15T09:16:38.099Z,11.32
2023-02-15T09:20:01.121Z,11.45
2023-02-15T09:22:32.230Z,9.88
2023-02-15T09:24:59.048Z,11.15
2023-02-15T09:27:25.873Z,16.55
2023-02-15T09:29:52.702Z,11.05
2023-02-15T09:32:19.747Z,11.07
2023-02-15T09:34:46.647Z,12.75
2023-02-15T09:37:13.364Z,10.05
2023-02-15T09:39:41.847Z,11.38
2023-02-15T09:42:28.436Z,12.15
2023-02-15T09:45:07.862Z,15.48
2023-02-15T09:47:53.545Z,22.15
2023-02-15T09:50:59.154Z,17.80
2023-02-15T09:54:05.037Z,26.20
2023-02-15T09:56:40.122Z,10.82
2023-02-15T09:59:19.158Z,11.63
2023-02-15T10:01:54.515Z,17.15
2023-02-15T10:04:21.257Z,11.50
2023-02-15T10:07:02.744Z,15.73
2023-02-15T10:10:01.057Z,14.57
2023-02-15T10:12:38.308Z,14.35
2023-02-15T10:15:14.671Z,16.25
2023-02-15T10:18:06.418Z,19.00
2023-02-15T10:20:33.376Z,18.95
2023-02-15T10:23:09.008Z,12.90
2023-02-15T10:25:57.922Z,13.38
2023-02-15T10:28:34.438Z,12.70
2023-02-15T10:31:26.438Z,19.35
2023-02-15T10:34:09.470Z,17.90
2023-02-15T10:37:11.654Z,11.05
2023-02-15T10:39:38.455Z,14.38
2023-02-15T10:42:13.079Z,13.40
2023-02-15T10:45:01.574Z,14.05
2023-02-15T10:47:52.520Z,16.05
2023-02-15T10:50:31.148Z,14.82
2023-02-15T10:53:10.461Z,15.40
2023-02-15T10:55:52.543Z,15.23
2023-02-15T10:58:40.023Z,15.02
2023-02-15T11:01:35.702Z,16.42
2023-02-15T11:04:11.520Z,15.02
2023-02-15T11:06:40.206Z,16.08
2023-02-15T11:09:11.891Z,16.90
2023-02-15T11:11:45.950Z,23.52
2023-02-15T11:14:25.253Z,16.15
2023-02-15T11:16:54.041Z,19.35
2023-02-15T11:19:27.956Z,19.52
2023-02-15T11:21:59.212Z,19.52
2023-02-15T11:24:29.854Z,18.58
2023-02-15T11:27:15.852Z,16.58
2023-02-15T11:29:54.286Z,18.17
2023-02-15T11:32:25.141Z,17.38
2023-02-15T11:34:57.434Z,19.23
2023-02-15T11:37:42.435Z,17.45
2023-02-15T11:40:25.806Z,18.77
2023-02-15T11:42:55.024Z,19.13
2023-02-15T11:45:45.607Z,23.88
2023-02-15T11:48:15.689Z,28.33
2023-02-15T11:50:42.996Z,17.80
2023-02-15T11:53:19.356Z,17.88
2023-02-15T11:55:46.965Z,30.98
2023-02-15T11:58:19.656Z,14.50
2023-02-15T12:00:47.821Z,15.35
2023-02-15T12:03:23.586Z,15.55
2023-02-15T12:05:54.599Z,15.68
2023-02-15T12:08:22.122Z,14.50
2023-02-15T12:11:06.882Z,14.57
2023-02-15T12:13:33.689Z,15.48
2023-02-15T12:16:05.516Z,16.17
2023-02-15T12:18:40.040Z,14.85
2023-02-15T12:21:14.540Z,15.25
2023-02-15T12:23:55.281Z,14.98
2023-02-15T12:26:30.075Z,16.95
2023-02-15T12:29:03.216Z,22.60
2023-02-15T12:31:35.542Z,23.85
2023-02-15T12:34:04.121Z,22.98
2023-02-15T12:36:35.097Z,25.25
2023-02-15T12:41:33.015Z,20.20
2023-02-15T12:44:19.537Z,16.10
2023-02-15T12:47:03.217Z,20.20
2023-02-15T12:49:31.821Z,20.85
2023-02-15T12:52:00.520Z,16.55
2023-02-15T12:54:37.329Z,16.75
2023-02-15T12:57:30.173Z,14.45
2023-02-15T12:59:57.900Z,15.85
2023-02-15T13:02:44.475Z,15.40
2023-02-15T13:05:17.332Z,14.30
2023-02-15T13:08:05.209Z,13.68
2023-02-15T13:10:40.647Z,16.80
2023-02-15T13:13:18.983Z,15.10
2023-02-15T13:15:48.242Z,15.05
2023-02-15T13:18:34.383Z,21.52
2023-02-15T13:21:18.356Z,13.82
2023-02-15T13:24:23.936Z,14.05
2023-02-15T13:26:50.996Z,14.38
2023-02-15T13:29:28.742Z,15.57
2023-02-15T13:31:56.955Z,15.70
2023-02-15T13:34:32.415Z,15.43
2023-02-15T13:37:20.963Z,22.35
2023-02-15T13:40:08.056Z,23.95
2023-02-15T13:42:44.020Z,30.77
2023-02-15T13:45:46.217Z,20.63
2023-02-15T13:48:45.983Z,22.42
2023-02-15T13:51:50.741Z,19.50
2023-02-15T13:54:38.550Z,26.70
2023-02-15T13:57:39.015Z,21.77
2023-02-15T14:00:30.944Z,21.27
2023-02-15T14:02:57.710Z,20.55
2023-02-15T14:05:49.697Z,19.40
2023-02-15T14:08:25.424Z,19.98
2023-02-15T14:10:55.283Z,22.17
2023-02-15T14:13:40.822Z,20.20
2023-02-15T14:16:35.010Z,19.98
2023-02-15T14:19:20.593Z,21.50
2023-02-15T14:22:09.371Z,21.70
2023-02-15T14:24:36.047Z,23.42
2023-02-15T14:27:27.968Z,17.85
2023-02-15T14:29:59.990Z,16.38
2023-02-15T14:32:37.888Z,18.63
2023-02-15T14:35:05.918Z,16.65
2023-02-15T14:38:02.752Z,17.95
2023-02-15T14:40:57.245Z,17.15
2023-02-15T14:44:02.268Z,21.73
2023-02-15T14:46:38.001Z,19.35
2023-02-15T14:49:16.767Z,18.60
2023-02-15T14:51:50.476Z,21.33
2023-02-15T14:54:17.219Z,17.83
2023-02-15T14:56:47.660Z,18.90
2023-02-15T14:59:17.310Z,17.60
2023-02-15T15:01:52.854Z,16.95
2023-02-15T15:04:39.502Z,18.20
2023-02-15T15:07:15.424Z,20.33
2023-02-15T15:09:43.136Z,17.50
2023-02-15T15:12:36.783Z,19.52
2023-02-15T15:15:04.914Z,19.02
2023-02-15T15:17:34.969Z,19.00
2023-02-15T15:20:14.581Z,21.13
2023-02-15T15:22:42.656Z,28.48
2023-02-15T15:25:34.635Z,32.00
2023-02-15T15:28:01.392Z,20.42
2023-02-15T15:30:31.241Z,19.23
2023-02-15T15:32:58.136Z,29.15
2023-02-15T15:35:50.033Z,25.25
2023-02-15T15:38:23.128Z,28.65
2023-02-15T15:41:18.730Z,29.88
2023-02-15T15:44:03.504Z,28.98
2023-02-15T15:46:42.185Z,31.30
2023-02-15T15:49:20.085Z,32.65
2023-02-15T15:51:46.969Z,28.60
2023-02-15T15:54:18.099Z,25.50
2023-02-15T15:56:47.964Z,26.08
2023-02-15T15:59:35.277Z,26.63
2023-02-15T16:02:11.859Z,25.38
2023-02-15T16:04:38.773Z,26.75
2023-02-15T16:07:17.650Z,27.70
2023-02-15T16:10:07.184Z,29.92
2023-02-15T16:12:35.314Z,34.20
2023-02-15T16:15:14.438Z,30.25
2023-02-15T16:17:42.080Z,28.52
2023-02-15T16:20:19.995Z,29.30
2023-02-15T16:22:54.712Z,36.35
2023-02-15T16:25:33.815Z,33.13
2023-02-15T16:28:07.553Z,31.35
2023-02-15T16:30:35.747Z,37.05
2023-02-15T16:33:07.652Z,37.97
2023-02-15T16:35:34.890Z,43.63
2023-02-15T16:38:02.085Z,35.55
2023-02-15T16:40:42.211Z,33.45
2023-02-15T16:43:16.076Z,33.27
2023-02-15T16:45:42.937Z,33.50
2023-02-15T16:48:14.676Z,31.25
2023-02-15T16:50:41.533Z,34.28
2023-02-15T16:53:14.290Z,36.53
2023-02-15T16:55:43.033Z,39.92
2023-02-15T16:58:14.903Z,40.38
2023-02-15T17:00:42.095Z,43.90
2023-02-15T17:03:21.105Z,49.60
2023-02-15T17:05:52.685Z,53.25
2023-02-15T17:08:32.495Z,50.75
2023-02-15T17:11:21.780Z,62.25
2023-02-15T17:14:07.489Z,63.63
2023-02-15T17:16:50.814Z,57.00
2023-02-15T17:19:18.873Z,49.47
2023-02-15T17:21:54.116Z,48.80
2023-02-15T17:24:32.066Z,52.20
2023-02-15T17:27:01.692Z,53.85
2023-02-15T17:29:39.669Z,53.30
2023-02-15T17:32:10.558Z,55.70
2023-02-15T17:34:46.402Z,59.28
2023-02-15T17:37:14.078Z,96.65
2023-02-15T17:39:41.560Z,58.40
2023-02-15T17:42:08.374Z,65.40
2023-02-15T17:44:35.181Z,64.30
2023-02-15T17:47:01.977Z,85.22
2023-02-15T17:49:34.891Z,57.58
2023-02-15T17:52:02.629Z,60.25
2023-02-15T17:54:47.743Z,60.08
2023-02-15T17:57:15.380Z,62.15
2023-02-15T18:00:01.109Z,61.78
2023-02-15T18:02:47.035Z,63.45
2023-02-15T18:05:32.975Z,77.25
2023-02-15T18:08:18.293Z,306.83
2023-02-15T18:11:03.825Z,124.75
2023-02-15T18:13:30.772Z,65.97
2023-02-15T18:15:57.877Z,102.82
2023-02-15T18:18:24.714Z,50.40
2023-02-15T18:20:51.477Z,54.33
2023-02-15T18:23:18.240Z,57.72
2023-02-15T18:25:45.088Z,48.53
2023-02-15T18:28:11.825Z,46.65
2023-02-15T18:30:41.325Z,50.78
2023-02-15T18:33:27.728Z,48.60
2023-02-15T18:35:54.488Z,47.70
2023-02-15T18:38:22.202Z,46.33
2023-02-15T18:40:50.823Z,47.00
2023-02-15T18:43:17.620Z,48.60
2023-02-15T18:45:44.461Z,48.42
2023-02-15T18:48:11.454Z,50.95
2023-02-15T18:50:38.470Z,50.38
2023-02-15T18:53:06.571Z,43.30
2023-02-15T18:55:34.139Z,46.78
2023-02-15T18:58:01.303Z,51.22
2023-02-15T19:00:30.050Z,53.27
2023-02-15T19:02:57.052Z,72.53
2023-02-15T19:05:24.149Z,61.43
2023-02-15T19:07:51.122Z,92.95
2023-02-15T19:10:22.740Z,75.70
2023-02-15T19:12:49.680Z,50.25
2023-02-15T19:15:18.030Z,234.57
2023-02-15T19:17:45.059Z,78.43
2023-02-15T19:20:22.575Z,54.03
2023-02-15T19:22:50.195Z,46.30
2023-02-15T19:25:40.308Z,46.03
2023-02-15T19:28:13.034Z,48.23
2023-02-15T19:30:39.816Z,46.93
2023-02-15T19:33:09.881Z,52.00
2023-02-15T19:35:37.253Z,52.03
2023-02-15T19:40:31.088Z,50.27
2023-02-15T19:42:57.977Z,48.87
2023-02-15T19:45:26.516Z,53.20
2023-02-15T19:47:55.093Z,51.97
2023-02-15T19:50:23.869Z,61.27
2023-02-15T19:52:50.728Z,60.20
2023-02-15T19:55:22.584Z,47.70
2023-02-15T19:57:51.533Z,43.57
2023-02-15T20:00:23.015Z,45.23
2023-02-15T20:02:49.926Z,41.23
2023-02-15T20:05:16.780Z,40.43
2023-02-15T20:07:44.817Z,43.20
2023-02-15T20:10:19.930Z,43.23
2023-02-15T20:12:47.618Z,44.50
2023-02-15T20:15:30.651Z,77.27
2023-02-15T20:17:58.165Z,40.17
2023-02-15T20:20:29.471Z,39.20
2023-02-15T20:22:56.236Z,36.50
2023-02-15T20:25:27.368Z,37.57
2023-02-15T20:27:54.497Z,37.00
2023-02-15T20:30:29.258Z,35.10
2023-02-15T20:32:56.229Z,33.60
2023-02-15T20:35:28.603Z,36.43
2023-02-15T20:37:56.564Z,40.63
2023-02-15T20:40:25.028Z,34.23
2023-02-15T20:42:51.832Z,34.10
2023-02-15T20:45:31.985Z,37.17
2023-02-15T20:47:59.255Z,34.42
2023-02-15T20:50:31.325Z,33.77
2023-02-15T20:52:58.923Z,35.43
2023-02-15T20:55:27.654Z,31.47
2023-02-15T20:57:54.552Z,30.07
2023-02-15T21:00:23.974Z,30.60
2023-02-15T21:02:52.092Z,28.77
2023-02-15T21:05:19.888Z,30.93
2023-02-15T21:07:46.849Z,32.40
2023-02-15T21:10:24.710Z,33.30
2023-02-15T21:12:51.818Z,33.40
2023-02-15T21:15:39.784Z,36.83
2023-02-15T21:18:10.254Z,33.60
2023-02-15T21:20:36.991Z,34.42
2023-02-15T21:23:04.426Z,34.30
2023-02-15T21:25:36.108Z,31.80
2023-02-15T21:28:03.333Z,30.43
2023-02-15T21:30:30.318Z,31.67
2023-02-15T21:33:00.327Z,31.00
2023-02-15T21:35:30.835Z,30.57
2023-02-15T21:37:57.658Z,29.27
2023-02-15T21:40:27.404Z,32.10
2023-02-15T21:43:12.808Z,28.23
2023-02-15T21:45:58.320Z,28.87
2023-02-15T21:48:25.100Z,30.43
2023-02-15T21:51:10.594Z,35.13
2023-02-15T21:53:39.805Z,35.40
2023-02-15T21:56:10.713Z,33.13
2023-02-15T21:58:37.509Z,31.27
2023-02-15T22:01:05.518Z,29.90
2023-02-15T22:03:34.539Z,32.17
2023-02-15T22:06:01.645Z,28.97
2023-02-15T22:08:28.436Z,27.37
2023-02-15T22:10:55.497Z,26.70
2023-02-15T22:13:28.308Z,27.63
2023-02-15T22:15:55.642Z,27.07
2023-02-15T22:18:27.747Z,27.00
2023-02-15T22:20:55.196Z,27.63
2023-02-15T22:23:25.102Z,26.80
2023-02-15T22:25:59.758Z,28.60
2023-02-15T22:28:34.394Z,30.77
2023-02-15T22:31:01.384Z,29.80
2023-02-15T22:33:32.990Z,30.87
2023-02-15T22:36:07.488Z,29.80
2023-02-15T22:38:34.290Z,29.37
2023-02-15T22:41:06.150Z,26.77
2023-02-15T22:43:37.578Z,26.20
2023-02-15T22:46:06.517Z,26.03
2023-02-15T22:48:33.394Z,26.10
2023-02-15T22:51:00.272Z,27.57
2023-02-15T22:53:27.153Z,26.57
2023-02-15T22:55:54.135Z,27.23
2023-02-15T22:58:25.559Z,26.30
2023-02-15T23:00:52.364Z,26.63
2023-02-15T23:03:31.324Z,24.33
2023-02-15T23:05:59.169Z,25.43
2023-02-15T23:08:25.967Z,25.23
2023-02-15T23:10:55.210Z,25.80
2023-02-15T23:13:27.624Z,23.93
2023-02-15T23:15:56.606Z,23.87
2023-02-15T23:18:23.421Z,23.63
2023-02-15T23:20:52.727Z,25.07
2023-02-15T23:23:23.267Z,24.07
2023-02-15T23:25:50.079Z,24.63
2023-02-15T23:28:22.696Z,27.63
2023-02-15T23:30:49.659Z,25.93
2023-02-15T23:33:16.446Z,26.33
2023-02-15T23:35:43.305Z,23.77
2023-02-15T23:38:18.652Z,25.30
2023-02-15T23:41:08.079Z,25.47
2023-02-15T23:43:34.901Z,23.77
2023-02-15T23:46:01.803Z,23.43
2023-02-15T23:48:33.652Z,22.80
2023-02-15T23:51:00.607Z,24.27
2023-02-15T23:53:27.455Z,24.60
2023-02-15T23:55:54.771Z,22.60
2023-02-15T23:58:25.027Z,26.27
